createdAt,value
2023-07-18T00:02:31.219Z,98321.41
2023-07-18T00:05:43.925Z,98324.25
2023-07-18T00:08:51.901Z,98326.22
2023-07-18T00:11:59.585Z,98335.88
2023-07-18T00:15:16.132Z,98326.84
2023-07-18T00:18:25.413Z,98321.81
2023-07-18T00:21:36.880Z,98319.44
2023-07-18T00:24:44.991Z,98326.78
2023-07-18T00:27:55.601Z,98307.78
2023-07-18T00:31:04.792Z,98302.81
2023-07-18T00:34:12.316Z,98305.53
2023-07-18T00:37:23.779Z,98296.19
2023-07-18T00:40:31.255Z,98289.25
2023-07-18T00:43:40.184Z,98296.59
2023-07-18T00:46:47.341Z,98299.28
2023-07-18T00:49:57.714Z,98300.97
2023-07-18T00:53:07.868Z,98308.28
2023-07-18T00:56:16.683Z,98299.94
2023-07-18T00:59:29.153Z,98300.28
2023-07-18T01:02:39.673Z,98302.25
2023-07-18T01:05:46.848Z,98334.63
2023-07-18T01:08:59.847Z,98338.53
2023-07-18T01:12:07.133Z,98312.50
2023-07-18T01:15:15.326Z,98317.50
2023-07-18T01:18:23.140Z,98322.16
2023-07-18T01:21:36.633Z,98319.50
2023-07-18T01:24:50.431Z,98310.16
2023-07-18T01:28:04.585Z,98312.44
2023-07-18T01:31:12.476Z,98317.78
2023-07-18T01:34:22.147Z,98319.75
2023-07-18T01:37:37.157Z,98326.94
2023-07-18T01:40:45.292Z,98333.75
2023-07-18T01:43:52.388Z,98352.75
2023-07-18T01:47:00.368Z,98353.16
2023-07-18T01:50:11.657Z,98372.41
2023-07-18T01:53:22.900Z,98384.63
2023-07-18T01:56:30.525Z,98395.88
2023-07-18T01:59:38.702Z,98390.72
2023-07-18T02:02:49.548Z,98395.66
2023-07-18T02:05:57.607Z,98428.25
2023-07-18T02:09:08.529Z,98428.94
2023-07-18T02:12:18.003Z,98458.19
2023-07-18T02:15:26.854Z,98441.41
2023-07-18T02:18:35.498Z,98443.47
2023-07-18T02:21:42.297Z,98472.69
2023-07-18T02:24:54.717Z,98478.03
2023-07-18T02:28:02.879Z,98488.19
2023-07-18T02:31:14.356Z,98492.16
2023-07-18T02:34:23.803Z,98493.59
2023-07-18T02:37:32.491Z,98519.94
2023-07-18T02:40:42.620Z,98515.16
2023-07-18T02:43:51.622Z,98523.97
2023-07-18T02:46:58.487Z,98519.50
2023-07-18T02:50:06.696Z,98528.03
2023-07-18T02:53:13.667Z,98538.69
2023-07-18T02:56:24.649Z,98549.59
2023-07-18T02:59:34.074Z,98547.25
2023-07-18T03:02:53.185Z,98552.41
2023-07-18T03:06:01.859Z,98565.13
2023-07-18T03:09:12.086Z,98552.09
2023-07-18T03:12:22.633Z,98570.53
2023-07-18T03:15:34.625Z,98560.19
2023-07-18T03:18:42.560Z,98567.47
2023-07-18T03:21:53.123Z,98576.41
2023-07-18T03:25:00.785Z,98573.03
2023-07-18T03:28:14.250Z,98588.03
2023-07-18T03:31:21.829Z,98575.22
2023-07-18T03:34:32.281Z,98569.91
2023-07-18T03:37:39.428Z,98583.72
2023-07-18T03:40:48.347Z,98576.22
2023-07-18T03:44:01.635Z,98577.78
2023-07-18T03:47:20.763Z,98586.56
2023-07-18T03:50:29.180Z,98583.69
2023-07-18T03:53:38.863Z,98589.44
2023-07-18T03:56:47.614Z,98592.53
2023-07-18T03:59:58.023Z,98595.50
2023-07-18T04:03:04.843Z,98602.22
2023-07-18T04:06:17.758Z,98609.78
2023-07-18T04:09:24.849Z,98618.47
2023-07-18T04:12:35.638Z,98627.69
2023-07-18T04:15:46.924Z,98629.66
2023-07-18T04:18:58.184Z,98633.56
2023-07-18T04:22:08.885Z,98640.97
2023-07-18T04:25:20.089Z,98639.16
2023-07-18T04:28:28.570Z,98647.50
2023-07-18T04:31:39.325Z,98645.25
2023-07-18T04:34:46.550Z,98647.47
2023-07-18T04:37:56.678Z,98643.84
2023-07-18T04:41:04.442Z,98631.25
2023-07-18T04:44:13.258Z,98649.72
2023-07-18T04:47:25.443Z,98645.25
2023-07-18T04:50:33.716Z,98657.84
2023-07-18T04:53:43.481Z,98651.47
2023-07-18T04:56:56.437Z,98660.25
2023-07-18T05:00:04.634Z,98671.06
2023-07-18T05:03:15.387Z,98684.25
2023-07-18T05:06:23.400Z,98668.28
2023-07-18T05:09:33.170Z,98684.31
2023-07-18T05:12:41.186Z,98677.91
2023-07-18T05:15:51.350Z,98694.03
2023-07-18T05:19:01.213Z,98699.22
2023-07-18T05:22:10.942Z,98690.03
2023-07-18T05:25:20.331Z,98709.97
2023-07-18T05:28:28.668Z,98692.03
2023-07-18T05:31:37.083Z,98720.34
2023-07-18T05:34:49.970Z,98715.03
2023-07-18T05:37:58.056Z,98709.81
2023-07-18T05:41:07.344Z,98706.75
2023-07-18T05:44:15.336Z,98721.91
2023-07-18T05:47:23.498Z,98727.34
2023-07-18T05:50:33.609Z,98726.81
2023-07-18T05:53:41.743Z,98737.19
2023-07-18T05:56:50.820Z,98736.34
2023-07-18T06:00:02.764Z,98726.22
2023-07-18T06:03:20.479Z,98738.84
2023-07-18T06:06:36.283Z,98740.53
2023-07-18T06:09:44.088Z,98742.50
2023-07-18T06:12:52.163Z,98735.66
2023-07-18T06:16:00.182Z,98748.63
2023-07-18T06:19:10.314Z,98753.38
2023-07-18T06:22:23.045Z,98751.16
2023-07-18T06:25:31.357Z,98756.94
2023-07-18T06:28:38.586Z,98765.41
2023-07-18T06:31:46.534Z,98772.50
2023-07-18T06:34:56.785Z,98758.22
2023-07-18T06:38:09.917Z,98765.78
2023-07-18T06:41:17.175Z,98768.72
2023-07-18T06:44:25.440Z,98763.22
2023-07-18T06:47:33.135Z,98769.97
2023-07-18T06:50:42.406Z,98764.81
2023-07-18T06:53:54.951Z,98778.94
2023-07-18T06:57:04.203Z,98785.28
2023-07-18T07:00:15.386Z,98765.50
2023-07-18T07:03:23.241Z,98773.69
2023-07-18T07:06:31.018Z,98777.59
2023-07-18T07:09:44.257Z,98773.97
2023-07-18T07:12:51.721Z,98769.31
2023-07-18T07:16:02.442Z,98771.84
2023-07-18T07:19:11.169Z,98788.91
2023-07-18T07:22:24.778Z,98780.94
2023-07-18T07:25:38.349Z,98773.41
2023-07-18T07:28:47.047Z,98767.53
2023-07-18T07:31:56.860Z,98782.63
2023-07-18T07:35:09.389Z,98783.59
2023-07-18T07:38:19.161Z,98788.78
2023-07-18T07:41:32.219Z,98774.06
2023-07-18T07:44:39.157Z,98779.97
2023-07-18T07:47:50.525Z,98781.00
2023-07-18T07:50:57.469Z,98782.63
2023-07-18T07:54:05.900Z,98781.81
2023-07-18T07:57:18.050Z,98780.94
2023-07-18T08:00:26.190Z,98780.72
2023-07-18T08:03:33.075Z,98777.84
2023-07-18T08:06:42.607Z,98782.31
2023-07-18T08:09:51.494Z,98774.28
2023-07-18T08:13:03.423Z,98772.47
2023-07-18T08:16:11.732Z,98771.94
2023-07-18T08:19:20.329Z,98761.53
2023-07-18T08:22:27.779Z,98775.59
2023-07-18T08:25:40.226Z,98762.03
2023-07-18T08:28:50.970Z,98761.16
2023-07-18T08:32:04.265Z,98762.66
2023-07-18T08:35:14.216Z,98770.59
2023-07-18T08:38:23.450Z,98770.53
2023-07-18T08:41:33.156Z,98765.63
2023-07-18T08:44:50.563Z,98774.56
2023-07-18T08:48:03.502Z,98765.81
2023-07-18T08:51:18.160Z,98760.75
2023-07-18T08:54:27.582Z,98760.75
2023-07-18T08:57:37.377Z,98768.69
2023-07-18T09:00:51.575Z,98759.38
2023-07-18T09:04:00.281Z,98760.53
2023-07-18T09:07:12.253Z,98769.91
2023-07-18T09:10:26.551Z,98755.84
2023-07-18T09:13:41.550Z,98756.03
2023-07-18T09:16:53.208Z,98759.38
2023-07-18T09:20:10.203Z,98764.75
2023-07-18T09:23:18.692Z,98760.47
2023-07-18T09:26:29.044Z,98755.66
2023-07-18T09:29:37.196Z,98745.88
2023-07-18T09:32:49.427Z,98750.44
2023-07-18T09:36:03.421Z,98739.91
2023-07-18T09:39:13.584Z,98756.50
2023-07-18T09:42:24.412Z,98751.47
2023-07-18T09:45:34.427Z,98756.19
2023-07-18T09:48:51.860Z,98748.16
2023-07-18T09:52:10.401Z,98761.91
2023-07-18T09:55:26.603Z,98734.50
2023-07-18T09:58:40.828Z,98742.28
2023-07-18T10:01:50.620Z,98725.94
2023-07-18T10:05:01.704Z,98721.72
2023-07-18T10:08:13.387Z,98711.72
2023-07-18T10:11:22.255Z,98706.06
2023-07-18T10:14:52.533Z,98708.81
2023-07-18T10:18:20.952Z,98716.59
2023-07-18T10:21:40.513Z,98703.66
2023-07-18T10:24:54.534Z,98699.66
2023-07-18T10:28:05.075Z,98709.63
2023-07-18T10:31:12.201Z,98698.22
2023-07-18T10:34:22.407Z,98690.75
2023-07-18T10:37:35.410Z,98684.91
2023-07-18T10:40:46.887Z,98674.56
2023-07-18T10:43:54.841Z,98682.97
2023-07-18T10:47:03.825Z,98676.66
2023-07-18T10:50:12.689Z,98674.38
2023-07-18T10:53:25.517Z,98677.72
2023-07-18T10:56:34.466Z,98676.06
2023-07-18T10:59:48.700Z,98682.25
2023-07-18T11:02:55.816Z,98660.03
2023-07-18T11:06:10.787Z,98641.47
2023-07-18T11:09:26.977Z,98661.44
2023-07-18T11:12:35.661Z,98658.16
2023-07-18T11:15:43.297Z,98653.53
2023-07-18T11:18:55.299Z,98640.22
2023-07-18T11:22:04.565Z,98642.28
2023-07-18T11:25:17.280Z,98636.31
2023-07-18T11:28:24.132Z,98625.13
2023-07-18T11:31:41.645Z,98632.38
2023-07-18T11:35:04.323Z,98619.78
2023-07-18T11:38:15.307Z,98605.59
2023-07-18T11:41:42.492Z,98617.69
2023-07-18T11:44:50.464Z,98613.84
2023-07-18T11:48:05.439Z,98618.72
2023-07-18T11:51:14.737Z,98616.53
2023-07-18T11:54:33.140Z,98612.72
2023-07-18T11:57:49.953Z,98602.84
2023-07-18T12:01:05.920Z,98610.56
2023-07-18T12:04:17.625Z,98610.72
2023-07-18T12:07:25.129Z,98597.19
2023-07-18T12:10:35.621Z,98610.91
2023-07-18T12:13:46.563Z,98583.78
2023-07-18T12:16:55.393Z,98590.84
2023-07-18T12:20:04.134Z,98593.34
2023-07-18T12:23:13.317Z,98581.94
2023-07-18T12:26:20.599Z,98582.28
2023-07-18T12:29:32.955Z,98584.31
2023-07-18T12:32:40.628Z,98588.81
2023-07-18T12:35:50.252Z,98582.09
2023-07-18T12:39:00.893Z,98577.06
2023-07-18T12:42:11.612Z,98562.31
2023-07-18T12:45:26.007Z,98559.31
2023-07-18T12:48:35.062Z,98563.66
2023-07-18T12:51:45.687Z,98561.31
2023-07-18T12:54:55.040Z,98555.28
2023-07-18T12:58:03.876Z,98537.97
2023-07-18T13:01:22.934Z,98547.00
2023-07-18T13:04:30.748Z,98541.84
2023-07-18T13:07:39.678Z,98528.41
2023-07-18T13:10:48.026Z,98535.69
2023-07-18T13:13:55.986Z,98527.28
2023-07-18T13:17:06.231Z,98516.09
2023-07-18T13:20:17.175Z,98527.38
2023-07-18T13:23:24.238Z,98515.50
2023-07-18T13:26:33.340Z,98512.56
2023-07-18T13:29:43.117Z,98507.69
2023-07-18T13:33:00.002Z,98496.94
2023-07-18T13:36:08.591Z,98492.91
2023-07-18T13:39:16.365Z,98487.38
2023-07-18T13:42:24.653Z,98483.78
2023-07-18T13:45:31.447Z,98485.25
2023-07-18T13:48:42.112Z,98434.59
2023-07-18T13:51:49.134Z,98480.69
2023-07-18T13:54:57.389Z,98459.50
2023-07-18T13:58:04.432Z,98456.66
2023-07-18T14:01:13.533Z,98464.47
2023-07-18T14:04:23.177Z,98461.25
2023-07-18T14:07:30.949Z,98454.91
2023-07-18T14:10:38.771Z,98466.94
2023-07-18T14:13:47.632Z,98460.97
2023-07-18T14:16:54.448Z,98466.56
2023-07-18T14:20:06.977Z,98465.59
2023-07-18T14:23:15.832Z,98472.28
2023-07-18T14:26:24.059Z,98476.09
2023-07-18T14:29:30.840Z,98472.97
2023-07-18T14:32:39.832Z,98454.69
2023-07-18T14:35:49.672Z,98447.44
2023-07-18T14:38:57.436Z,98463.69
2023-07-18T14:42:04.456Z,98444.94
2023-07-18T14:45:13.849Z,98427.59
2023-07-18T14:48:20.622Z,98430.09
2023-07-18T14:51:33.016Z,98415.84
2023-07-18T14:54:42.638Z,98428.44
2023-07-18T14:57:52.240Z,98417.63
2023-07-18T15:00:59.464Z,98411.34
2023-07-18T15:04:07.849Z,98411.91
2023-07-18T15:07:19.635Z,98409.94
2023-07-18T15:10:29.125Z,98403.69
2023-07-18T15:13:36.177Z,98409.69
2023-07-18T15:16:44.710Z,98421.31
2023-07-18T15:19:51.624Z,98413.03
2023-07-18T15:23:02.280Z,98406.50
2023-07-18T15:26:09.508Z,98392.13
2023-07-18T15:29:18.137Z,98395.91
2023-07-18T15:32:26.429Z,98381.66
2023-07-18T15:35:35.018Z,98384.38
2023-07-18T15:38:46.425Z,98380.34
2023-07-18T15:41:55.774Z,98366.97
2023-07-18T15:45:02.919Z,98362.38
2023-07-18T15:48:10.624Z,98354.84
2023-07-18T15:51:19.499Z,98352.13
2023-07-18T15:54:34.454Z,98325.69
2023-07-18T15:57:41.387Z,98321.63
2023-07-18T16:00:50.943Z,98319.75
2023-07-18T16:03:57.751Z,98316.72
2023-07-18T16:07:06.764Z,98318.13
2023-07-18T16:10:16.993Z,98315.44
2023-07-18T16:13:24.800Z,98310.00
2023-07-18T16:16:32.479Z,98320.72
2023-07-18T16:19:45.530Z,98318.41
2023-07-18T16:22:55.830Z,98307.34
2023-07-18T16:26:06.948Z,98314.31
2023-07-18T16:29:13.761Z,98308.50
2023-07-18T16:32:21.448Z,98320.38
2023-07-18T16:35:29.286Z,98304.25
2023-07-18T16:38:39.771Z,98320.59
2023-07-18T16:41:50.931Z,98308.91
2023-07-18T16:44:58.773Z,98323.75
2023-07-18T16:48:06.913Z,98324.84
2023-07-18T16:51:14.867Z,98325.00
2023-07-18T16:54:23.734Z,98322.41
2023-07-18T16:57:35.280Z,98325.56
2023-07-18T17:00:45.294Z,98328.94
2023-07-18T17:04:05.331Z,98300.69
2023-07-18T17:07:14.455Z,98306.06
2023-07-18T17:10:22.810Z,98294.31
2023-07-18T17:13:32.484Z,98304.63
2023-07-18T17:16:40.315Z,98299.94
2023-07-18T17:20:03.188Z,98291.09
2023-07-18T17:23:16.461Z,98287.41
2023-07-18T17:26:25.694Z,98288.56
2023-07-18T17:29:42.694Z,98306.06
2023-07-18T17:32:51.408Z,98300.53
2023-07-18T17:36:00.620Z,98290.41
2023-07-18T17:39:08.918Z,98277.72
2023-07-18T17:42:16.998Z,98266.94
2023-07-18T17:45:27.086Z,98264.84
2023-07-18T17:48:35.496Z,98249.31
2023-07-18T17:51:42.433Z,98266.59
2023-07-18T17:54:50.565Z,98238.53
2023-07-18T17:57:57.547Z,98229.81
2023-07-18T18:01:08.880Z,98230.81
2023-07-18T18:04:15.933Z,98228.69
2023-07-18T18:07:23.650Z,98236.97
2023-07-18T18:10:31.705Z,98231.09
2023-07-18T18:13:39.484Z,98225.59
2023-07-18T18:16:49.481Z,98231.75
2023-07-18T18:19:57.754Z,98224.13
2023-07-18T18:23:05.271Z,98236.81
2023-07-18T18:26:13.790Z,98249.13
2023-07-18T18:29:23.158Z,98245.66
2023-07-18T18:32:33.858Z,98237.88
2023-07-18T18:35:43.555Z,98236.28
2023-07-18T18:38:52.383Z,98229.91
2023-07-18T18:42:02.090Z,98236.53
2023-07-18T18:45:12.934Z,98228.72
2023-07-18T18:48:24.562Z,98217.53
2023-07-18T18:51:33.194Z,98211.72
2023-07-18T18:54:39.982Z,98231.63
2023-07-18T18:57:52.617Z,98240.34
2023-07-18T19:01:00.881Z,98243.31
2023-07-18T19:04:14.331Z,98240.09
2023-07-18T19:07:22.736Z,98232.44
2023-07-18T19:10:31.436Z,98226.50
2023-07-18T19:13:38.618Z,98230.09
2023-07-18T19:16:46.585Z,98223.97
2023-07-18T19:19:58.317Z,98216.19
2023-07-18T19:23:06.372Z,98237.72
2023-07-18T19:26:13.627Z,98245.00
2023-07-18T19:29:21.732Z,98251.94
2023-07-18T19:32:28.894Z,98236.75
2023-07-18T19:35:40.440Z,98238.00
2023-07-18T19:38:49.412Z,98237.06
2023-07-18T19:41:57.030Z,98240.63
2023-07-18T19:45:04.954Z,98233.28
2023-07-18T19:48:14.349Z,98219.63
2023-07-18T19:51:24.743Z,98217.16
2023-07-18T19:54:33.244Z,98207.66
2023-07-18T19:57:41.341Z,98214.09
2023-07-18T20:00:49.021Z,98213.47
2023-07-18T20:03:59.725Z,98210.81
2023-07-18T20:07:11.162Z,98212.50
2023-07-18T20:10:17.907Z,98208.00
2023-07-18T20:13:26.475Z,98212.22
2023-07-18T20:16:34.048Z,98212.06
2023-07-18T20:19:42.245Z,98200.84
2023-07-18T20:22:52.013Z,98203.22
2023-07-18T20:26:02.024Z,98200.91
2023-07-18T20:29:10.017Z,98198.91
2023-07-18T20:32:17.710Z,98194.22
2023-07-18T20:35:24.759Z,98197.59
2023-07-18T20:38:35.368Z,98191.25
2023-07-18T20:41:42.190Z,98185.25
2023-07-18T20:44:51.302Z,98173.84
2023-07-18T20:47:58.862Z,98173.53
2023-07-18T20:51:07.357Z,98178.22
2023-07-18T20:54:17.009Z,98183.03
2023-07-18T20:57:25.391Z,98180.53
2023-07-18T21:00:34.018Z,98186.06
2023-07-18T21:03:41.633Z,98177.53
2023-07-18T21:06:51.094Z,98183.22
2023-07-18T21:10:02.862Z,98178.19
2023-07-18T21:13:10.038Z,98173.16
2023-07-18T21:16:20.088Z,98165.50
2023-07-18T21:19:27.163Z,98172.19
2023-07-18T21:22:34.803Z,98172.19
2023-07-18T21:25:44.567Z,98172.50
2023-07-18T21:29:04.118Z,98167.84
2023-07-18T21:32:12.835Z,98161.44
2023-07-18T21:35:23.927Z,98156.75
2023-07-18T21:38:31.637Z,98146.72
2023-07-18T21:41:42.409Z,98151.53
2023-07-18T21:44:50.139Z,98151.41
2023-07-18T21:47:58.579Z,98137.38
2023-07-18T21:51:05.952Z,98137.53
2023-07-18T21:54:14.580Z,98140.69
2023-07-18T21:57:25.112Z,98146.69
2023-07-18T22:00:32.854Z,98147.00
2023-07-18T22:03:40.177Z,98142.00
2023-07-18T22:06:47.763Z,98138.16
2023-07-18T22:09:55.071Z,98140.31
2023-07-18T22:13:06.916Z,98132.63
2023-07-18T22:16:16.778Z,98122.25
2023-07-18T22:19:24.519Z,98118.25
2023-07-18T22:22:31.699Z,98114.25
2023-07-18T22:25:39.571Z,98105.88
2023-07-18T22:28:50.407Z,98104.53
2023-07-18T22:31:59.095Z,98107.69
2023-07-18T22:35:06.653Z,98094.63
2023-07-18T22:38:15.605Z,98088.63
2023-07-18T22:41:24.403Z,98075.75
2023-07-18T22:44:34.762Z,98086.25
2023-07-18T22:47:41.582Z,98078.75
2023-07-18T22:50:49.724Z,98079.91
2023-07-18T22:53:56.506Z,98083.53
2023-07-18T22:57:04.918Z,98071.53
2023-07-18T23:00:18.765Z,98069.34
2023-07-18T23:03:26.654Z,98062.66
2023-07-18T23:06:34.321Z,98055.97
2023-07-18T23:09:42.252Z,98054.44
2023-07-18T23:12:49.143Z,98047.78
2023-07-18T23:16:01.094Z,98042.94
2023-07-18T23:19:08.314Z,98037.25
2023-07-18T23:22:15.925Z,98040.22
2023-07-18T23:25:22.826Z,98030.06
2023-07-18T23:28:30.751Z,98025.16
2023-07-18T23:31:41.348Z,98025.03
2023-07-18T23:34:49.098Z,98029.53
2023-07-18T23:37:57.234Z,98024.69
2023-07-18T23:41:04.846Z,98017.09
2023-07-18T23:44:11.717Z,98016.44
2023-07-18T23:47:22.140Z,98008.75
2023-07-18T23:50:30.141Z,98011.59
2023-07-18T23:53:37.989Z,98003.06
2023-07-18T23:56:45.285Z,98013.72
2023-07-18T23:59:53.900Z,98014.06
